createdAt,value
2022-09-09T00:01:54.440Z,1.50
2022-09-09T00:04:28.340Z,1.38
2022-09-09T00:07:00.567Z,1.70
2022-09-09T00:09:30.597Z,1.27
2022-09-09T00:12:04.940Z,1.40
2022-09-09T00:14:37.565Z,1.35
2022-09-09T00:17:09.648Z,1.25
2022-09-09T00:19:43.197Z,1.33
2022-09-09T00:22:17.243Z,1.50
2022-09-09T00:24:47.142Z,1.58
2022-09-09T00:27:19.152Z,1.70
2022-09-09T00:29:50.223Z,1.70
2022-09-09T00:32:19.748Z,1.50
2022-09-09T00:34:52.648Z,1.40
2022-09-09T00:37:22.162Z,1.75
2022-09-09T00:39:53.079Z,1.50
2022-09-09T00:42:23.820Z,1.52
2022-09-09T00:45:02.138Z,1.58
2022-09-09T00:47:37.915Z,1.67
2022-09-09T00:50:13.005Z,1.60
2022-09-09T00:52:45.137Z,1.63
2022-09-09T00:55:19.954Z,1.90
2022-09-09T00:57:49.263Z,1.67
2022-09-09T01:00:25.442Z,1.60
2022-09-09T01:03:06.558Z,2.00
2022-09-09T01:05:44.425Z,1.60
2022-09-09T01:08:17.789Z,1.48
2022-09-09T01:10:50.430Z,1.70
2022-09-09T01:13:22.108Z,1.70
2022-09-09T01:15:51.302Z,1.60
2022-09-09T01:18:23.130Z,1.60
2022-09-09T01:20:58.067Z,1.80
2022-09-09T01:23:37.101Z,1.88
2022-09-09T01:26:13.694Z,1.50
2022-09-09T01:28:42.214Z,1.40
2022-09-09T01:31:12.014Z,1.65
2022-09-09T01:33:40.585Z,1.73
2022-09-09T01:36:10.962Z,1.60
2022-09-09T01:38:39.629Z,1.80
2022-09-09T01:41:09.483Z,1.77
2022-09-09T01:43:37.918Z,1.70
2022-09-09T01:46:06.589Z,1.77
2022-09-09T01:48:35.252Z,1.85
2022-09-09T01:51:03.849Z,1.80
2022-09-09T01:53:32.321Z,1.75
2022-09-09T01:56:07.752Z,1.70
2022-09-09T01:58:44.263Z,1.60
2022-09-09T02:01:17.422Z,1.60
2022-09-09T02:03:47.468Z,1.70
2022-09-09T02:06:17.721Z,2.28
2022-09-09T02:08:48.427Z,1.88
2022-09-09T02:11:17.812Z,1.73
2022-09-09T02:13:48.964Z,1.98
2022-09-09T02:16:21.422Z,1.98
2022-09-09T02:18:53.654Z,1.98
2022-09-09T02:21:22.940Z,1.65
2022-09-09T02:23:53.086Z,2.05
2022-09-09T02:26:24.257Z,1.88
2022-09-09T02:28:56.036Z,2.05
2022-09-09T02:31:25.129Z,2.17
2022-09-09T02:33:55.189Z,2.05
2022-09-09T02:36:25.082Z,1.73
2022-09-09T02:38:54.949Z,1.80
2022-09-09T02:41:24.924Z,1.90
2022-09-09T02:43:54.762Z,1.98
2022-09-09T02:46:30.995Z,2.53
2022-09-09T02:49:02.963Z,2.22
2022-09-09T02:51:36.658Z,2.60
2022-09-09T02:54:11.312Z,2.40
2022-09-09T02:56:42.312Z,2.30
2022-09-09T02:59:12.669Z,2.10
2022-09-09T03:01:41.233Z,1.98
2022-09-09T03:04:10.289Z,2.22
2022-09-09T03:06:38.823Z,2.20
2022-09-09T03:09:08.971Z,2.55
2022-09-09T03:11:37.360Z,1.88
2022-09-09T03:14:05.789Z,2.28
2022-09-09T03:16:35.635Z,1.90
2022-09-09T03:19:04.232Z,2.20
2022-09-09T03:21:33.161Z,2.40
2022-09-09T03:24:01.580Z,2.40
2022-09-09T03:26:29.982Z,2.40
2022-09-09T03:28:58.388Z,2.67
2022-09-09T03:31:27.047Z,2.50
2022-09-09T03:33:56.900Z,2.60
2022-09-09T03:36:25.385Z,2.33
2022-09-09T03:38:54.345Z,2.30
2022-09-09T03:41:25.000Z,2.22
2022-09-09T03:43:53.694Z,2.50
2022-09-09T03:46:22.338Z,2.33
2022-09-09T03:48:50.784Z,2.50
2022-09-09T03:51:21.042Z,2.17
2022-09-09T03:53:49.498Z,2.20
2022-09-09T03:56:17.901Z,2.40
2022-09-09T03:58:46.272Z,2.63
2022-09-09T04:01:15.333Z,2.75
2022-09-09T04:03:44.127Z,2.72
2022-09-09T04:06:14.482Z,2.80
2022-09-09T04:08:46.107Z,2.45
2022-09-09T04:11:15.005Z,2.22
2022-09-09T04:13:43.564Z,2.78
2022-09-09T04:16:12.696Z,2.60
2022-09-09T04:18:41.235Z,2.45
2022-09-09T04:21:09.841Z,2.40
2022-09-09T04:23:38.237Z,2.67
2022-09-09T04:26:08.398Z,2.40
2022-09-09T04:28:37.787Z,2.35
2022-09-09T04:31:10.491Z,3.13
2022-09-09T04:33:40.739Z,2.60
2022-09-09T04:36:09.983Z,2.50
2022-09-09T04:38:38.748Z,2.40
2022-09-09T04:41:09.328Z,2.85
2022-09-09T04:43:38.379Z,2.08
2022-09-09T04:46:07.255Z,2.80
2022-09-09T04:48:36.084Z,2.58
2022-09-09T04:51:05.757Z,3.22
2022-09-09T04:53:35.126Z,2.65
2022-09-09T04:56:08.877Z,2.58
2022-09-09T04:58:37.419Z,2.72
2022-09-09T05:01:07.071Z,2.15
2022-09-09T05:03:35.662Z,2.33
2022-09-09T05:06:10.767Z,3.13
2022-09-09T05:08:39.721Z,2.88
2022-09-09T05:11:17.937Z,2.65
2022-09-09T05:13:46.347Z,3.13
2022-09-09T05:16:14.801Z,2.80
2022-09-09T05:18:44.027Z,3.00
2022-09-09T05:21:12.684Z,2.95
2022-09-09T05:23:41.451Z,2.97
2022-09-09T05:26:14.385Z,2.90
2022-09-09T05:28:47.141Z,3.00
2022-09-09T05:31:16.003Z,3.08
2022-09-09T05:33:46.812Z,2.60
2022-09-09T05:36:15.900Z,2.95
2022-09-09T05:38:44.552Z,2.90
2022-09-09T05:41:13.466Z,3.40
2022-09-09T05:43:43.263Z,3.17
2022-09-09T05:46:15.868Z,2.90
2022-09-09T05:48:45.116Z,3.22
2022-09-09T05:51:16.556Z,3.47
2022-09-09T05:53:45.368Z,2.50
2022-09-09T05:56:15.214Z,2.45
2022-09-09T05:58:44.807Z,3.00
2022-09-09T06:01:15.500Z,3.03
2022-09-09T06:03:44.635Z,3.30
2022-09-09T06:06:14.317Z,2.92
2022-09-09T06:08:43.601Z,2.70
2022-09-09T06:11:13.460Z,3.15
2022-09-09T06:13:42.033Z,2.50
2022-09-09T06:16:12.590Z,2.65
2022-09-09T06:18:42.752Z,3.38
2022-09-09T06:21:12.559Z,3.05
2022-09-09T06:23:42.951Z,2.95
2022-09-09T06:26:13.164Z,2.75
2022-09-09T06:28:43.540Z,2.78
2022-09-09T06:31:12.812Z,2.92
2022-09-09T06:33:44.375Z,3.75
2022-09-09T06:36:13.881Z,2.80
2022-09-09T06:38:43.021Z,2.75
2022-09-09T06:41:11.851Z,2.75
2022-09-09T06:43:40.219Z,3.30
2022-09-09T06:46:10.523Z,2.90
2022-09-09T06:48:39.006Z,3.08
2022-09-09T06:51:09.376Z,2.78
2022-09-09T06:53:38.932Z,3.67
2022-09-09T06:56:20.729Z,2.60
2022-09-09T06:58:50.009Z,3.17
2022-09-09T07:01:19.815Z,2.60
2022-09-09T07:03:51.162Z,3.33
2022-09-09T07:06:21.521Z,2.47
2022-09-09T07:08:56.510Z,2.42
2022-09-09T07:11:26.718Z,2.85
2022-09-09T07:13:55.674Z,2.47
2022-09-09T07:16:25.776Z,2.25
2022-09-09T07:18:58.583Z,2.20
2022-09-09T07:21:28.849Z,2.45
2022-09-09T07:23:57.440Z,2.30
2022-09-09T07:26:27.332Z,2.38
2022-09-09T07:28:56.703Z,2.03
2022-09-09T07:31:27.258Z,2.30
2022-09-09T07:33:56.362Z,2.30
2022-09-09T07:36:31.232Z,2.15
2022-09-09T07:39:04.370Z,2.42
2022-09-09T07:41:35.303Z,2.40
2022-09-09T07:44:07.720Z,1.90
2022-09-09T07:46:36.354Z,2.40
2022-09-09T07:49:05.371Z,2.08
2022-09-09T07:51:34.607Z,2.30
2022-09-09T07:54:05.255Z,1.98
2022-09-09T07:56:34.156Z,2.22
2022-09-09T07:59:02.791Z,2.55
2022-09-09T08:01:32.439Z,2.10
2022-09-09T08:04:02.095Z,1.83
2022-09-09T08:06:31.052Z,2.08
2022-09-09T08:08:59.508Z,1.95
2022-09-09T08:11:30.043Z,1.75
2022-09-09T08:14:02.239Z,1.80
2022-09-09T08:16:32.049Z,2.20
2022-09-09T08:19:00.638Z,1.92
2022-09-09T08:21:30.088Z,1.80
2022-09-09T08:23:59.189Z,1.73
2022-09-09T08:26:30.329Z,1.80
2022-09-09T08:28:59.512Z,1.65
2022-09-09T08:31:29.126Z,1.70
2022-09-09T08:33:58.219Z,1.73
2022-09-09T08:36:27.733Z,1.90
2022-09-09T08:38:57.926Z,1.83
2022-09-09T08:41:41.912Z,1.77
2022-09-09T08:44:12.362Z,1.70
2022-09-09T08:46:45.086Z,1.65
2022-09-09T08:49:18.867Z,1.63
2022-09-09T08:51:47.297Z,2.00
2022-09-09T08:54:21.932Z,2.13
2022-09-09T08:57:06.068Z,1.90
2022-09-09T08:59:34.430Z,1.70
2022-09-09T09:02:05.537Z,1.88
2022-09-09T09:04:44.959Z,1.48
2022-09-09T09:07:18.219Z,1.70
2022-09-09T09:09:49.944Z,1.67
2022-09-09T09:12:20.960Z,1.65
2022-09-09T09:14:50.272Z,2.45
2022-09-09T09:17:20.674Z,1.20
2022-09-09T09:19:50.619Z,1.67
2022-09-09T09:22:21.042Z,1.70
2022-09-09T09:24:53.592Z,1.70
2022-09-09T09:27:29.685Z,1.83
2022-09-09T09:30:29.004Z,1.83
2022-09-09T09:32:52.412Z,1.70
2022-09-09T09:35:20.783Z,1.30
2022-09-09T09:40:38.438Z,1.52
2022-09-09T09:43:20.328Z,1.98
2022-09-09T09:46:06.978Z,1.60
2022-09-09T09:48:37.754Z,1.70
2022-09-09T09:51:08.823Z,1.83
2022-09-09T09:53:39.397Z,2.05
2022-09-09T09:56:08.881Z,1.70
2022-09-09T09:58:51.115Z,1.60
2022-09-09T10:01:22.392Z,1.90
2022-09-09T10:03:53.269Z,1.80
2022-09-09T10:06:32.036Z,1.80
2022-09-09T10:09:00.410Z,1.63
2022-09-09T10:11:33.753Z,1.50
2022-09-09T10:14:08.760Z,1.52
2022-09-09T10:16:43.206Z,1.17
2022-09-09T10:19:13.674Z,1.45
2022-09-09T10:21:54.433Z,1.60
2022-09-09T10:24:33.803Z,1.60
2022-09-09T10:27:04.927Z,1.33
2022-09-09T10:29:44.918Z,1.30
2022-09-09T10:32:26.148Z,1.35
2022-09-09T10:35:04.131Z,1.25
2022-09-09T10:37:38.080Z,1.42
2022-09-09T10:40:14.481Z,1.50
2022-09-09T10:42:44.419Z,1.33
2022-09-09T10:45:21.255Z,1.30
2022-09-09T10:47:59.193Z,1.40
2022-09-09T10:50:59.984Z,1.45
2022-09-09T10:53:25.853Z,1.73
2022-09-09T10:55:55.862Z,1.67
2022-09-09T10:58:26.962Z,1.60
2022-09-09T11:00:59.549Z,1.30
2022-09-09T11:03:32.059Z,1.45
2022-09-09T11:06:02.681Z,1.50
2022-09-09T11:08:32.036Z,1.55
2022-09-09T11:11:03.655Z,1.40
2022-09-09T11:13:37.039Z,1.42
2022-09-09T11:16:14.786Z,1.50
2022-09-09T11:18:45.338Z,1.85
2022-09-09T11:21:18.254Z,1.92
2022-09-09T11:23:48.554Z,1.80
2022-09-09T11:26:20.222Z,1.50
2022-09-09T11:28:59.496Z,1.40
2022-09-09T11:31:38.546Z,1.33
2022-09-09T11:34:13.447Z,1.35
2022-09-09T11:36:47.228Z,1.40
2022-09-09T11:39:26.615Z,1.48
2022-09-09T11:41:54.961Z,1.30
2022-09-09T11:44:31.320Z,1.27
2022-09-09T11:47:01.127Z,1.40
2022-09-09T11:49:32.390Z,1.65
2022-09-09T11:52:00.766Z,1.23
2022-09-09T11:54:31.575Z,1.20
2022-09-09T11:56:59.945Z,0.90
2022-09-09T11:59:30.032Z,1.30
2022-09-09T12:01:58.865Z,1.00
2022-09-09T12:04:35.969Z,1.38
2022-09-09T12:07:06.872Z,1.08
2022-09-09T12:09:49.913Z,1.30
2022-09-09T12:12:29.645Z,1.33
2022-09-09T12:15:00.277Z,1.27
2022-09-09T12:17:29.841Z,1.05
2022-09-09T12:20:11.978Z,0.95
2022-09-09T12:22:44.393Z,1.10
2022-09-09T12:25:23.372Z,1.20
2022-09-09T12:28:02.640Z,1.27
2022-09-09T12:30:32.820Z,1.00
2022-09-09T12:33:05.133Z,1.30
2022-09-09T12:35:34.952Z,1.60
2022-09-09T12:38:04.713Z,1.42
2022-09-09T12:40:36.195Z,1.77
2022-09-09T12:43:05.119Z,1.70
2022-09-09T12:45:37.020Z,1.90
2022-09-09T12:48:07.677Z,2.35
2022-09-09T12:50:38.791Z,2.97
2022-09-09T12:53:10.151Z,3.38
2022-09-09T12:55:39.752Z,4.18
2022-09-09T12:58:09.164Z,3.90
2022-09-09T13:00:37.638Z,3.08
2022-09-09T13:03:17.492Z,3.13
2022-09-09T13:05:47.839Z,2.08
2022-09-09T13:08:16.804Z,2.28
2022-09-09T13:10:58.724Z,2.08
2022-09-09T13:13:30.922Z,2.72
2022-09-09T13:16:00.882Z,3.70
2022-09-09T13:18:30.498Z,4.00
2022-09-09T13:21:01.345Z,3.90
2022-09-09T13:23:31.438Z,3.60
2022-09-09T13:26:00.839Z,2.92
2022-09-09T13:28:33.854Z,2.90
2022-09-09T13:31:04.155Z,2.95
2022-09-09T13:33:34.311Z,2.97
2022-09-09T13:36:06.072Z,2.40
2022-09-09T13:38:35.840Z,2.20
2022-09-09T13:41:05.819Z,2.08
2022-09-09T13:43:36.734Z,2.40
2022-09-09T13:46:07.195Z,1.83
2022-09-09T13:48:35.632Z,2.95
2022-09-09T13:51:06.856Z,2.42
2022-09-09T13:53:35.278Z,1.88
2022-09-09T13:56:04.018Z,1.70
2022-09-09T13:58:32.367Z,2.13
2022-09-09T14:01:00.810Z,1.80
2022-09-09T14:03:29.204Z,1.58
2022-09-09T14:05:58.143Z,1.80
2022-09-09T14:08:37.913Z,1.90
2022-09-09T14:11:06.687Z,1.90
2022-09-09T14:13:35.293Z,2.00
2022-09-09T14:16:03.935Z,1.52
2022-09-09T14:18:32.367Z,1.48
2022-09-09T14:21:00.722Z,1.60
2022-09-09T14:23:30.654Z,1.80
2022-09-09T14:25:59.845Z,1.77
2022-09-09T14:28:51.951Z,2.20
2022-09-09T14:31:18.598Z,1.88
2022-09-09T14:33:47.293Z,1.70
2022-09-09T14:36:16.144Z,1.90
2022-09-09T14:38:45.908Z,2.65
2022-09-09T14:41:15.703Z,1.85
2022-09-09T14:43:44.108Z,1.20
2022-09-09T14:46:13.806Z,1.05
2022-09-09T14:48:42.619Z,1.10
2022-09-09T14:51:11.686Z,1.20
2022-09-09T14:53:40.071Z,1.05
2022-09-09T14:56:11.170Z,1.00
2022-09-09T14:58:40.017Z,1.17
2022-09-09T15:01:08.913Z,1.00
2022-09-09T15:03:38.236Z,1.08
2022-09-09T15:06:10.617Z,1.30
2022-09-09T15:08:42.408Z,1.48
2022-09-09T15:11:13.643Z,2.40
2022-09-09T15:13:43.594Z,3.40
2022-09-09T15:16:12.740Z,2.75
2022-09-09T15:18:43.811Z,2.33
2022-09-09T15:21:12.560Z,1.85
2022-09-09T15:23:41.257Z,1.90
2022-09-09T15:26:10.075Z,1.60
2022-09-09T15:28:40.744Z,1.50
2022-09-09T15:31:09.902Z,1.40
2022-09-09T15:33:38.931Z,1.40
2022-09-09T15:36:17.220Z,1.20
2022-09-09T15:38:45.654Z,1.27
2022-09-09T15:41:14.440Z,1.52
2022-09-09T15:43:47.858Z,1.40
2022-09-09T15:46:28.149Z,1.20
2022-09-09T15:48:57.493Z,1.20
2022-09-09T15:51:41.845Z,0.90
2022-09-09T15:54:12.419Z,1.13
2022-09-09T15:56:40.848Z,1.00
2022-09-09T15:59:10.712Z,1.17
2022-09-09T16:01:41.321Z,1.20
2022-09-09T16:04:09.890Z,1.27
2022-09-09T16:06:38.500Z,1.25
2022-09-09T16:09:08.143Z,1.20
2022-09-09T16:11:37.898Z,1.08
2022-09-09T16:14:07.508Z,1.00
2022-09-09T16:16:37.702Z,1.02
2022-09-09T16:19:07.496Z,1.23
2022-09-09T16:21:38.754Z,1.30
2022-09-09T16:24:08.154Z,1.65
2022-09-09T16:26:37.688Z,1.38
2022-09-09T16:29:06.409Z,1.42
2022-09-09T16:31:35.025Z,1.30
2022-09-09T16:34:05.413Z,1.30
2022-09-09T16:36:35.899Z,1.40
2022-09-09T16:39:05.682Z,1.67
2022-09-09T16:41:35.107Z,1.40
2022-09-09T16:44:04.671Z,1.80
2022-09-09T16:46:35.035Z,1.88
2022-09-09T16:49:05.917Z,2.00
2022-09-09T16:51:35.394Z,2.20
2022-09-09T16:54:04.772Z,2.15
2022-09-09T16:56:35.293Z,1.92
2022-09-09T16:59:04.498Z,2.10
2022-09-09T17:01:33.978Z,2.60
2022-09-09T17:04:03.143Z,2.10
2022-09-09T17:06:34.074Z,2.50
2022-09-09T17:09:03.695Z,2.38
2022-09-09T17:11:32.548Z,2.22
2022-09-09T17:14:01.181Z,2.50
2022-09-09T17:16:30.598Z,2.15
2022-09-09T17:19:00.125Z,2.42
2022-09-09T17:21:29.318Z,2.13
2022-09-09T17:23:59.663Z,2.38
2022-09-09T17:26:29.737Z,1.90
2022-09-09T17:28:59.849Z,2.05
2022-09-09T17:31:29.560Z,2.22
2022-09-09T17:33:58.726Z,1.98
2022-09-09T17:36:28.381Z,1.80
2022-09-09T17:38:56.773Z,2.00
2022-09-09T17:41:27.756Z,2.08
2022-09-09T17:43:58.002Z,2.25
2022-09-09T17:46:27.819Z,2.25
2022-09-09T17:48:58.863Z,2.80
2022-09-09T17:51:28.919Z,1.80
2022-09-09T17:53:59.885Z,2.03
2022-09-09T17:56:31.587Z,2.50
2022-09-09T17:59:00.622Z,2.47
2022-09-09T18:01:30.050Z,2.30
2022-09-09T18:03:58.857Z,2.20
2022-09-09T18:06:29.424Z,2.50
2022-09-09T18:08:58.506Z,2.38
2022-09-09T18:11:30.424Z,2.50
2022-09-09T18:14:01.388Z,2.65
2022-09-09T18:16:30.620Z,2.55
2022-09-09T18:18:59.540Z,2.30
2022-09-09T18:21:29.352Z,2.80
2022-09-09T18:23:57.682Z,2.75
2022-09-09T18:26:27.440Z,2.97
2022-09-09T18:28:56.740Z,3.13
2022-09-09T18:31:28.768Z,2.67
2022-09-09T18:33:58.052Z,3.00
2022-09-09T18:36:27.546Z,3.05
2022-09-09T18:38:56.780Z,3.17
2022-09-09T18:41:26.697Z,3.38
2022-09-09T18:43:56.118Z,2.63
2022-09-09T18:46:26.595Z,3.20
2022-09-09T18:48:56.171Z,3.05
2022-09-09T18:51:26.007Z,3.03
2022-09-09T18:53:54.941Z,3.28
2022-09-09T18:56:23.774Z,2.92
2022-09-09T18:58:53.821Z,3.20
2022-09-09T19:01:22.350Z,3.10
2022-09-09T19:03:52.292Z,2.33
2022-09-09T19:06:21.871Z,2.90
2022-09-09T19:08:55.117Z,2.45
2022-09-09T19:11:25.663Z,2.60
2022-09-09T19:13:54.962Z,2.42
2022-09-09T19:16:23.711Z,2.53
2022-09-09T19:18:53.801Z,2.38
2022-09-09T19:21:23.310Z,2.47
2022-09-09T19:23:56.075Z,3.08
2022-09-09T19:26:24.530Z,3.30
2022-09-09T19:28:52.917Z,3.10
2022-09-09T19:31:22.925Z,3.22
2022-09-09T19:33:55.591Z,3.08
2022-09-09T19:36:24.743Z,3.10
2022-09-09T19:38:54.769Z,2.80
2022-09-09T19:41:24.678Z,2.70
2022-09-09T19:43:53.267Z,2.70
2022-09-09T19:46:21.700Z,2.85
2022-09-09T19:48:50.402Z,2.63
2022-09-09T19:51:21.600Z,2.40
2022-09-09T19:53:51.043Z,2.60
2022-09-09T19:56:19.835Z,2.75
2022-09-09T19:58:49.140Z,2.58
2022-09-09T20:01:18.367Z,2.55
2022-09-09T20:03:47.778Z,2.55
2022-09-09T20:06:17.259Z,2.78
2022-09-09T20:08:47.818Z,2.60
2022-09-09T20:11:16.825Z,2.72
2022-09-09T20:13:45.624Z,2.58
2022-09-09T20:16:15.224Z,2.30
2022-09-09T20:18:45.375Z,3.30
2022-09-09T20:21:16.508Z,2.35
2022-09-09T20:23:46.237Z,2.30
2022-09-09T20:26:17.568Z,2.45
2022-09-09T20:28:46.995Z,2.75
2022-09-09T20:31:16.730Z,3.33
2022-09-09T20:33:45.752Z,2.25
2022-09-09T20:36:15.203Z,2.90
2022-09-09T20:38:44.551Z,2.72
2022-09-09T20:41:15.269Z,2.80
2022-09-09T20:43:50.540Z,3.72
2022-09-09T20:46:19.731Z,3.60
2022-09-09T20:48:48.521Z,3.72
2022-09-09T20:51:17.428Z,2.97
2022-09-09T20:53:45.849Z,2.83
2022-09-09T20:56:16.888Z,2.30
2022-09-09T20:58:45.426Z,1.98
2022-09-09T21:01:18.018Z,2.05
2022-09-09T21:03:46.884Z,1.80
2022-09-09T21:06:17.174Z,2.15
2022-09-09T21:08:46.019Z,1.83
2022-09-09T21:11:14.469Z,1.90
2022-09-09T21:13:43.331Z,1.90
2022-09-09T21:16:14.158Z,1.67
2022-09-09T21:18:44.868Z,1.92
2022-09-09T21:21:13.773Z,2.10
2022-09-09T21:23:42.736Z,1.83
2022-09-09T21:26:11.349Z,2.00
2022-09-09T21:28:40.377Z,2.60
2022-09-09T21:31:09.340Z,2.53
2022-09-09T21:33:38.503Z,2.25
2022-09-09T21:36:09.347Z,2.33
2022-09-09T21:38:38.742Z,2.78
2022-09-09T21:41:08.386Z,2.38
2022-09-09T21:43:39.330Z,2.28
2022-09-09T21:46:09.188Z,2.30
2022-09-09T21:48:37.959Z,2.17
2022-09-09T21:51:09.588Z,2.85
2022-09-09T21:53:38.618Z,2.30
2022-09-09T21:56:08.064Z,2.60
2022-09-09T21:58:37.110Z,2.90
2022-09-09T22:01:10.443Z,2.72
2022-09-09T22:03:39.077Z,2.55
2022-09-09T22:06:09.240Z,2.55
2022-09-09T22:08:38.095Z,3.10
2022-09-09T22:11:10.011Z,2.58
2022-09-09T22:13:39.238Z,2.70
2022-09-09T22:16:08.543Z,2.45
2022-09-09T22:18:37.128Z,2.88
2022-09-09T22:21:06.917Z,2.30
2022-09-09T22:23:37.582Z,3.05
2022-09-09T22:26:06.678Z,3.10
2022-09-09T22:28:35.672Z,2.47
2022-09-09T22:31:04.223Z,2.55
2022-09-09T22:33:32.612Z,2.47
2022-09-09T22:36:01.241Z,2.88
2022-09-09T22:38:29.603Z,2.40
2022-09-09T22:40:59.700Z,2.60
2022-09-09T22:43:28.059Z,2.50
2022-09-09T22:45:56.453Z,2.67
2022-09-09T22:48:25.037Z,2.92
2022-09-09T22:50:53.735Z,2.47
2022-09-09T22:53:22.172Z,2.97
2022-09-09T22:55:58.568Z,2.95
2022-09-09T22:58:29.144Z,2.45
2022-09-09T23:00:58.793Z,2.58
2022-09-09T23:03:27.322Z,2.95
2022-09-09T23:05:57.497Z,2.70
2022-09-09T23:08:26.783Z,3.67
2022-09-09T23:10:55.932Z,2.92
2022-09-09T23:13:25.424Z,2.83
2022-09-09T23:15:55.231Z,2.42
2022-09-09T23:18:26.847Z,2.70
2022-09-09T23:21:00.417Z,2.90
2022-09-09T23:23:28.917Z,2.88
2022-09-09T23:25:57.368Z,2.80
2022-09-09T23:28:26.800Z,2.90
2022-09-09T23:30:56.543Z,2.40
2022-09-09T23:33:24.949Z,3.00
2022-09-09T23:36:00.009Z,3.00
2022-09-09T23:38:28.720Z,2.78
2022-09-09T23:40:57.521Z,2.47
2022-09-09T23:43:26.781Z,2.38
2022-09-09T23:45:56.961Z,2.85
2022-09-09T23:48:27.219Z,2.50
2022-09-09T23:50:55.817Z,2.33
2022-09-09T23:53:24.246Z,2.58
2022-09-09T23:55:53.763Z,2.10
2022-09-09T23:58:22.143Z,2.42
